メインページ
METAR-TAF:

METAR-TAF

空港 :

ホーチミン, ベトナム

タンソンニャット国際空港

緯度: 10-49N, 経度: 106-40E, 海抜: 19m

現時点の気象観測

当レポートは29分前の20:00(UTC)に作成
西/南西の風 7kt
気温 27°C
湿度 89%
気圧 1006 hPa
視程: 8000m
高度1500ftの雲は散在している
高度4000ftの千切れ雲あり

METAR: VVTS 232000Z 24007KT 8000 SCT015 BKN040 27/25 Q1006 NOSIG

時間: 03:29 (20:29 UTC)

予報

当レポートは3時間29分前の17:00(UTC)に作成
予報は23日の 18時(UTC)から 24日の 24時(UTC)まで有効
西の風 10kt
視程10km以上
高度1500ftの雲は散在している
24日の 05時(UTC)から 24日の 08時(UTC)まで一時的に
西の風 16kt、最大28ktの突風を伴う
視程: 3000m
高度1500ftの雲は散在している
高度1700ftの雲は散在している, 積乱雲.
にわか雨
24日の 08時(UTC)から 24日の 10時(UTC)まで一時的に
西/北西の風 18kt、最大32ktの突風を伴う
視程: 1000m
高度1000ftの千切れ雲あり
高度1500ftの雲は散在している, 積乱雲.
激しい雷雨, 大雨
24日の 10時(UTC)から 24日の 14時(UTC)まで一時的に
視程: 5000m
高度1500ftの雲は散在している
高度1700ftの雲はほとんどない, 積乱雲.
高度4000ftの千切れ雲あり
にわか雨

TAF: VVTS 231700Z 2318/2424 26010KT 9999 SCT015 TEMPO 2405/2408 26016G28KT 3000 SHRA SCT015 SCT017CB TEMPO 2408/2410 29018G32KT 1000 +TSRA BKN010 SCT015CB TEMPO 2410/2414 5000 SHRA SCT015 FEW017CB BKN040

4,000以上の空港の気象観測と天気予報(METAR報とTAF報)

利用可能な観測所は地図上に黄色い丸と赤い丸で示す。

丸の上にカーソルを重ねると観測所名を参照できる。

次にクリックすると気象観測と天気予報を参照できる。

マップの切り替え:黒色「×」印の緑ボタンをクリックして拡大、「-」印の緑ボタンをクリックして縮小、緑色の三角印をクリックして隣りの地図に切り替え


METAR-TAF: